Time;durP1;ratioP1;P1;durP2;ratioP2;P2;SDS_P1;SDS_P2;PMS_P1;PMS_P2;Temp;Humidity;BMP_temperature;BMP_pressure;BME280_temperature;BME280_humidity;BME280_pressure;Samples;Min_cycle;Max_cycle;Signal;HPM_P1;HPM_P2
2023/10/12 00:01:58;;;;;;;17.00;5.47;;;15.20;99.90;;;;;;5048857;28;20474;-74
2023/10/12 00:04:41;;;;;;;18.73;6.07;;;15.20;99.90;;;;;;5049360;28;20061;-74
2023/10/12 00:07:16;;;;;;;18.55;6.38;;;15.10;99.90;;;;;;5048446;28;20045;-76
2023/10/12 00:10:09;;;;;;;16.30;5.60;;;15.10;99.90;;;;;;5049034;28;20033;-76
2023/10/12 00:12:35;;;;;;;15.95;5.97;;;15.10;99.90;;;;;;5042411;28;20098;-75
2023/10/12 00:15:05;;;;;;;15.45;6.07;;;15.10;99.90;;;;;;5049486;28;20100;-75
2023/10/12 00:17:33;;;;;;;17.08;5.93;;;15.20;99.90;;;;;;5048647;28;20041;-76
2023/10/12 00:19:59;;;;;;;12.77;5.28;;;15.10;99.90;;;;;;5049286;28;20029;-75
2023/10/12 00:22:25;;;;;;;22.02;6.07;;;15.20;99.90;;;;;;5049601;28;20770;-75
2023/10/12 00:24:52;;;;;;;17.70;6.07;;;15.20;99.90;;;;;;5049193;28;20116;-76
2023/10/12 00:27:18;;;;;;;18.60;5.28;;;15.30;99.90;;;;;;5049097;28;20044;-74
2023/10/12 00:29:48;;;;;;;12.80;5.63;;;15.20;99.90;;;;;;5047919;28;20060;-78
2023/10/12 00:32:14;;;;;;;18.75;5.55;;;15.20;99.90;;;;;;5049211;28;20093;-74
2023/10/12 00:34:47;;;;;;;14.57;5.43;;;15.30;99.90;;;;;;5049687;28;20045;-75
2023/10/12 00:37:14;;;;;;;18.08;6.03;;;15.50;99.90;;;;;;5047193;28;20036;-75
2023/10/12 00:40:22;;;;;;;17.90;5.70;;;15.60;99.90;;;;;;5049055;28;20025;-77
2023/10/12 00:42:34;;;;;;;17.20;6.03;;;15.80;99.90;;;;;;5048356;28;20087;-76
2023/10/12 00:45:19;;;;;;;19.17;5.65;;;15.90;99.90;;;;;;5047702;28;20033;-76
2023/10/12 00:47:45;;;;;;;17.77;5.82;;;15.80;99.90;;;;;;5046978;28;20079;-77
2023/10/12 00:50:12;;;;;;;15.95;5.43;;;16.00;99.90;;;;;;5048510;28;20040;-75
2023/10/12 00:52:55;;;;;;;19.83;6.47;;;16.10;99.90;;;;;;5048899;28;20037;-75
2023/10/12 00:55:34;;;;;;;15.13;5.18;;;16.30;99.90;;;;;;5049239;28;20051;-75
2023/10/12 00:58:05;;;;;;;18.10;5.40;;;16.40;99.90;;;;;;5047729;28;20496;-76
2023/10/12 01:00:35;;;;;;;13.43;5.50;;;16.60;99.90;;;;;;5048913;28;20078;-77
2023/10/12 01:03:07;;;;;;;16.20;6.05;;;16.60;99.90;;;;;;5047761;28;20048;-76
2023/10/12 01:05:36;;;;;;;13.98;5.35;;;16.60;99.90;;;;;;5045780;28;20049;-76
2023/10/12 01:08:05;;;;;;;17.10;5.95;;;16.50;99.90;;;;;;5047734;28;20052;-77
2023/10/12 01:10:33;;;;;;;12.70;5.25;;;16.50;99.90;;;;;;5049155;28;20090;-76
2023/10/12 01:13:00;;;;;;;19.55;5.25;;;16.60;99.90;;;;;;5047979;28;20032;-75
2023/10/12 01:15:30;;;;;;;17.75;6.03;;;16.50;99.90;;;;;;5048766;28;20362;-76
2023/10/12 01:17:56;;;;;;;16.80;5.80;;;16.50;99.90;;;;;;5047880;28;20111;-76
2023/10/12 01:20:26;;;;;;;23.98;5.07;;;16.60;99.90;;;;;;5048604;28;20032;-76
2023/10/12 01:22:53;;;;;;;17.70;5.93;;;16.60;99.90;;;;;;5047587;28;20049;-75
2023/10/12 01:25:31;;;;;;;18.88;5.32;;;16.60;99.90;;;;;;5048962;28;20029;-75
2023/10/12 01:28:01;;;;;;;12.20;5.35;;;16.60;99.90;;;;;;5032144;28;20041;-76
2023/10/12 01:30:28;;;;;;;18.02;5.90;;;16.60;99.90;;;;;;5045532;28;20119;-75
2023/10/12 01:33:04;;;;;;;15.73;5.25;;;16.60;99.90;;;;;;5031427;28;20383;-76
2023/10/12 01:35:33;;;;;;;12.90;5.45;;;16.60;99.90;;;;;;5046647;28;20036;-75
2023/10/12 01:38:08;;;;;;;11.18;5.53;;;16.60;99.90;;;;;;5047130;28;20116;-75
2023/10/12 01:43:12;;;;;;;14.05;5.63;;;16.60;99.90;;;;;;5047760;28;20445;-75
2023/10/12 01:45:41;;;;;;;16.92;6.13;;;16.60;99.90;;;;;;5048577;28;20029;-76
2023/10/12 01:48:12;;;;;;;13.30;5.75;;;16.60;99.90;;;;;;5047164;28;20124;-75
2023/10/12 01:50:39;;;;;;;13.80;4.95;;;16.50;99.90;;;;;;5045196;28;20033;-75
2023/10/12 01:53:22;;;;;;;12.15;5.45;;;16.40;99.90;;;;;;5047284;28;20029;-76
2023/10/12 01:55:51;;;;;;;17.08;6.07;;;16.40;99.90;;;;;;5047432;28;20108;-78
2023/10/12 01:58:20;;;;;;;11.38;5.15;;;16.30;99.90;;;;;;5047726;28;20478;-76
2023/10/12 02:00:52;;;;;;;17.33;5.60;;;16.30;99.90;;;;;;5047695;28;20033;-76
2023/10/12 02:06:01;;;;;;;14.48;6.15;;;16.30;99.90;;;;;;5046798;28;20045;-75
2023/10/12 02:08:39;;;;;;;15.75;5.57;;;16.20;99.90;;;;;;5040181;28;20140;-75
2023/10/12 02:11:09;;;;;;;17.95;5.15;;;16.20;99.90;;;;;;5047447;28;20037;-75
2023/10/12 02:13:36;;;;;;;14.95;5.05;;;16.20;99.90;;;;;;5046665;28;20573;-75
2023/10/12 02:16:07;;;;;;;14.48;5.10;;;16.20;99.90;;;;;;5047055;28;20033;-75
2023/10/12 02:18:34;;;;;;;14.02;5.65;;;16.20;99.90;;;;;;5048253;28;20142;-74
2023/10/12 02:23:38;;;;;;;13.13;5.50;;;16.20;99.90;;;;;;5048365;28;20048;-76
2023/10/12 02:26:07;;;;;;;21.08;6.35;;;16.10;99.90;;;;;;5047600;28;20025;-76
2023/10/12 02:28:37;;;;;;;11.57;5.05;;;16.00;99.90;;;;;;5047747;28;20083;-77
2023/10/12 02:31:04;;;;;;;15.35;5.25;;;16.00;99.90;;;;;;5047015;28;20040;-75
2023/10/12 02:33:35;;;;;;;14.52;6.05;;;16.10;99.90;;;;;;5046819;28;20426;-75
2023/10/12 02:36:06;;;;;;;16.83;5.90;;;16.00;99.90;;;;;;5047200;28;20037;-76
2023/10/12 02:38:34;;;;;;;13.55;5.25;;;16.00;99.90;;;;;;5047743;28;20120;-77
2023/10/12 02:41:00;;;;;;;16.02;5.55;;;15.70;99.90;;;;;;5046532;28;20091;-76
2023/10/12 02:43:33;;;;;;;24.02;5.78;;;15.40;99.90;;;;;;5048072;28;20033;-77
2023/10/12 02:46:05;;;;;;;14.65;5.88;;;15.20;99.90;;;;;;5048007;28;20059;-76
2023/10/12 02:48:36;;;;;;;17.65;5.72;;;15.20;99.90;;;;;;5040064;28;20067;-75
2023/10/12 02:51:06;;;;;;;;;;;15.10;99.90;;;;;;5042121;28;20025;-75
2023/10/12 02:53:34;;;;;;;14.32;5.05;;;15.10;99.90;;;;;;5030826;28;20251;-76
2023/10/12 02:56:01;;;;;;;19.70;6.10;;;15.10;99.90;;;;;;5036658;28;20550;-75
2023/10/12 02:58:29;;;;;;;15.02;6.05;;;15.10;99.90;;;;;;5050404;28;20096;-77
2023/10/12 03:00:57;;;;;;;15.55;5.85;;;15.10;99.90;;;;;;5050204;28;20021;-74
2023/10/12 03:03:31;;;;;;;13.93;5.57;;;15.00;99.90;;;;;;5051574;28;20531;-74
2023/10/12 03:05:59;;;;;;;15.43;5.78;;;15.00;99.90;;;;;;5048653;28;20440;-76
2023/10/12 03:08:30;;;;;;;14.52;5.68;;;15.00;99.90;;;;;;5051101;28;20123;-74
2023/10/12 03:13:34;;;;;;;18.05;5.90;;;14.90;99.90;;;;;;5051215;28;20112;-75
2023/10/12 03:18:36;;;;;;;18.25;5.55;;;14.80;99.90;;;;;;5050739;28;20033;-75
2023/10/12 03:21:05;;;;;;;14.93;6.32;;;14.80;99.90;;;;;;5050062;28;20048;-75
2023/10/12 03:23:33;;;;;;;15.00;5.85;;;14.80;99.90;;;;;;5033278;28;20448;-76
2023/10/12 03:26:06;;;;;;;17.42;6.10;;;14.80;99.90;;;;;;5050089;28;20033;-77
2023/10/12 03:29:10;;;;;;;11.43;5.13;;;14.80;99.90;;;;;;5049404;28;20634;-75
2023/10/12 03:31:23;;;;;;;12.50;5.68;;;14.80;99.90;;;;;;5047115;28;20206;-75
2023/10/12 03:33:54;;;;;;;15.45;6.05;;;14.80;99.90;;;;;;5050823;28;20474;-77
2023/10/12 03:36:31;;;;;;;18.13;6.35;;;14.80;99.90;;;;;;5037707;28;20030;-75
2023/10/12 03:39:13;;;;;;;16.23;6.13;;;14.80;99.90;;;;;;5050134;28;20052;-74
2023/10/12 03:44:18;;;;;;;12.45;5.70;;;14.70;99.90;;;;;;5049548;28;20051;-75
2023/10/12 03:46:46;;;;;;;22.00;6.07;;;14.70;99.90;;;;;;5050460;28;20043;-74
2023/10/12 03:49:57;;;;;;;16.35;5.95;;;14.80;99.90;;;;;;5049868;28;20029;-77
2023/10/12 03:52:13;;;;;;;14.80;6.22;;;14.90;99.90;;;;;;5027359;28;20046;-75
2023/10/12 03:54:45;;;;;;;12.40;5.63;;;15.10;99.90;;;;;;5035574;28;20056;-78
2023/10/12 03:57:19;;;;;;;19.38;5.57;;;15.10;99.90;;;;;;5049595;28;20047;-75
2023/10/12 03:59:58;;;;;;;12.45;5.97;;;15.10;99.90;;;;;;5050474;28;20033;-77
2023/10/12 04:02:24;;;;;;;15.52;5.20;;;15.10;99.90;;;;;;5050569;28;20032;-75
2023/10/12 04:16:40;;;;;;;17.20;5.68;;;15.50;99.90;;;;;;5011206;28;20040;-75
2023/10/12 04:21:33;;;;;;;13.93;5.20;;;15.60;99.90;;;;;;5047685;28;20021;-77
2023/10/12 04:26:44;;;;;;;17.58;5.63;;;15.60;99.90;;;;;;5049322;28;20029;-77
2023/10/12 04:29:13;;;;;;;12.00;5.05;;;15.60;99.90;;;;;;5048635;28;20025;-75
2023/10/12 04:34:11;;;;;;;15.05;5.63;;;15.70;99.90;;;;;;5048944;28;20040;-77
2023/10/12 04:41:53;;;;;;;12.30;5.53;;;15.70;99.90;;;;;;5048362;28;20410;-75
2023/10/12 04:46:59;;;;;;;18.38;5.93;;;15.70;99.90;;;;;;5049208;28;20370;-75
2023/10/12 04:57:26;;;;;;;14.65;4.95;;;15.90;99.90;;;;;;5049006;28;20044;-76
2023/10/12 05:00:10;;;;;;;13.10;5.32;;;15.80;99.90;;;;;;5049229;28;20032;-75
2023/10/12 05:05:15;;;;;;;20.00;5.75;;;15.90;99.90;;;;;;5045178;28;20053;-74
2023/10/12 05:07:59;;;;;;;15.80;5.65;;;16.00;99.90;;;;;;5038945;28;20040;-77
2023/10/12 05:10:46;;;;;;;19.45;5.38;;;16.10;99.90;;;;;;5036529;28;20087;-75
2023/10/12 05:13:18;;;;;;;16.48;5.55;;;16.00;99.90;;;;;;5045367;28;20040;-75
2023/10/12 05:15:46;;;;;;;19.20;5.82;;;16.00;99.90;;;;;;5048181;28;20044;-77
2023/10/12 05:18:17;;;;;;;14.35;5.00;;;16.00;99.90;;;;;;5043998;28;20031;-76
2023/10/12 05:20:43;;;;;;;14.05;5.30;;;16.10;99.90;;;;;;5042658;28;20032;-76
2023/10/12 05:23:10;;;;;;;16.77;5.00;;;16.10;99.90;;;;;;5043846;28;20083;-75
2023/10/12 05:28:31;;;;;;;16.25;5.68;;;16.10;99.90;;;;;;5044965;28;20039;-75
2023/10/12 05:35:59;;;;;;;20.23;6.15;;;16.00;99.90;;;;;;5046981;28;20029;-76
2023/10/12 05:38:35;;;;;;;17.20;6.00;;;16.10;99.90;;;;;;5046562;28;20029;-74
2023/10/12 05:41:02;;;;;;;16.25;5.72;;;16.00;99.90;;;;;;5037552;28;20033;-76
2023/10/12 05:43:33;;;;;;;15.15;5.80;;;16.00;99.90;;;;;;5046034;28;20036;-74
2023/10/12 05:46:10;;;;;;;12.45;5.75;;;16.00;99.90;;;;;;5047905;28;20033;-77
2023/10/12 05:48:41;;;;;;;21.95;5.82;;;16.00;99.90;;;;;;5028921;28;20045;-75
2023/10/12 05:51:10;;;;;;;15.82;5.47;;;16.00;99.90;;;;;;5041151;28;20033;-77
2023/10/12 05:53:37;;;;;;;15.32;5.43;;;16.00;99.90;;;;;;5037734;28;20021;-75
2023/10/12 05:56:04;;;;;;;14.95;5.95;;;16.10;99.90;;;;;;5039009;28;20355;-75
2023/10/12 05:58:32;;;;;;;16.45;5.88;;;16.20;99.90;;;;;;5031879;28;20041;-75
2023/10/12 06:01:05;;;;;;;15.18;5.35;;;16.20;99.90;;;;;;5045600;28;20116;-77
2023/10/12 06:03:31;;;;;;;17.30;5.75;;;16.20;99.90;;;;;;5046596;28;20033;-76
2023/10/12 06:05:57;;;;;;;13.35;6.32;;;16.30;99.90;;;;;;5045488;28;20080;-75
2023/10/12 06:08:28;;;;;;;20.25;6.10;;;16.20;99.90;;;;;;5044869;28;20037;-76
2023/10/12 06:10:54;;;;;;;14.55;5.38;;;16.10;99.90;;;;;;5036870;28;20040;-75
2023/10/12 06:13:23;;;;;;;14.10;5.78;;;16.10;99.90;;;;;;5044445;28;20033;-76
2023/10/12 06:15:53;;;;;;;19.85;6.22;;;16.20;99.90;;;;;;5048365;28;20040;-75
2023/10/12 06:18:22;;;;;;;18.17;6.00;;;16.30;99.90;;;;;;5045235;28;20045;-75
2023/10/12 06:21:06;;;;;;;17.90;5.95;;;16.30;99.90;;;;;;5047966;28;20040;-75
2023/10/12 06:23:32;;;;;;;15.43;5.55;;;16.40;99.90;;;;;;5040320;28;20106;-76
2023/10/12 06:25:58;;;;;;;13.45;5.45;;;16.40;99.90;;;;;;5052428;28;20055;-75
2023/10/12 06:28:27;;;;;;;14.95;6.68;;;16.50;99.90;;;;;;5046523;28;20041;-76
2023/10/12 06:30:53;;;;;;;16.60;6.70;;;16.60;99.90;;;;;;5050069;28;20043;-77
2023/10/12 06:33:22;;;;;;;13.90;5.28;;;16.60;99.90;;;;;;5044600;28;21006;-74
2023/10/12 06:36:00;;;;;;;18.67;5.82;;;16.60;99.90;;;;;;5043199;28;20034;-76
2023/10/12 06:44:23;;;;;;;15.50;5.60;;;16.60;99.90;;;;;;4985727;28;20033;-77
2023/10/12 06:46:49;;;;;;;13.32;5.75;;;16.70;99.90;;;;;;5025808;28;20481;-74
2023/10/12 06:49:18;;;;;;;14.45;5.50;;;16.70;99.90;;;;;;5046386;28;20380;-75
2023/10/12 06:51:54;;;;;;;20.50;6.07;;;16.80;99.90;;;;;;5048615;28;20090;-75
2023/10/12 06:59:52;;;;;;;18.15;5.88;;;16.80;99.90;;;;;;5036480;28;20112;-77
2023/10/12 07:02:23;;;;;;;16.70;6.25;;;16.80;99.90;;;;;;5036165;28;20029;-75
2023/10/12 07:04:55;;;;;;;16.92;6.00;;;16.80;99.90;;;;;;5031503;28;20489;-77
2023/10/12 07:07:26;;;;;;;16.67;5.95;;;16.80;99.90;;;;;;5037276;28;20037;-75
2023/10/12 07:12:47;;;;;;;16.75;6.32;;;16.90;99.90;;;;;;5051519;28;20637;-76
2023/10/12 07:15:22;;;;;;;12.85;5.57;;;17.00;99.90;;;;;;5050568;28;20025;-74
2023/10/12 07:17:51;;;;;;;15.38;7.57;;;17.00;99.90;;;;;;5051388;28;20037;-76
2023/10/12 07:20:40;;;;;;;12.27;6.15;;;17.00;99.90;;;;;;5050027;28;20025;-75
2023/10/12 07:23:28;;;;;;;15.82;5.95;;;17.10;99.90;;;;;;5050572;28;20032;-78
2023/10/12 07:25:58;;;;;;;14.30;5.85;;;17.20;99.90;;;;;;5050930;28;20473;-76
2023/10/12 07:28:33;;;;;;;17.05;5.68;;;17.30;99.90;;;;;;5050411;28;20033;-76
2023/10/12 07:39:22;;;;;;;18.17;5.93;;;17.50;99.90;;;;;;5048809;28;20033;-78
2023/10/12 07:41:57;;;;;;;15.85;6.03;;;17.50;99.90;;;;;;5048539;28;20036;-75
2023/10/12 07:44:24;;;;;;;12.50;5.85;;;17.50;99.90;;;;;;5048123;28;20464;-76
2023/10/12 07:46:50;;;;;;;16.50;5.75;;;17.50;99.90;;;;;;5046453;28;20061;-74
2023/10/12 07:49:37;;;;;;;18.48;6.07;;;17.50;99.90;;;;;;5049700;28;20036;-76
2023/10/12 07:57:17;;;;;;;17.42;7.13;;;17.80;99.90;;;;;;5049940;28;20037;-75
2023/10/12 07:59:59;;;;;;;19.33;7.68;;;17.80;99.90;;;;;;5050211;28;20028;-74
2023/10/12 08:13:06;;;;;;;23.20;6.60;;;18.00;99.90;;;;;;5050322;28;20033;-77
2023/10/12 08:16:05;;;;;;;15.20;6.82;;;18.00;99.90;;;;;;5049409;28;20049;-74
2023/10/12 08:24:30;;;;;;;16.83;6.20;;;18.70;99.90;;;;;;5049955;28;20079;-75
2023/10/12 08:26:48;;;;;;;14.52;5.60;;;18.80;99.90;;;;;;5047020;28;20032;-74
2023/10/12 08:32:03;;;;;;;14.73;6.28;;;18.90;99.90;;;;;;5049766;28;20033;-75
2023/10/12 08:40:27;;;;;;;17.67;6.25;;;19.00;99.90;;;;;;5031483;28;20040;-75
2023/10/12 08:45:06;;;;;;;12.32;6.07;;;19.00;99.90;;;;;;5049714;28;20170;-74
2023/10/12 08:50:08;;;;;;;17.38;6.65;;;19.10;99.90;;;;;;5047614;28;20039;-75
2023/10/12 08:52:38;;;;;;;20.60;6.47;;;19.20;99.90;;;;;;5035258;28;20120;-75
2023/10/12 08:55:14;;;;;;;21.65;6.47;;;19.20;99.90;;;;;;5036091;28;20480;-75
2023/10/12 08:58:11;;;;;;;19.70;5.85;;;19.20;99.90;;;;;;5038219;28;20426;-76
2023/10/12 09:00:44;;;;;;;15.05;6.28;;;19.20;99.90;;;;;;5040685;28;20033;-75
2023/10/12 09:06:00;;;;;;;20.75;6.45;;;19.30;99.90;;;;;;5047275;28;20044;-76
2023/10/12 09:10:58;;;;;;;22.50;6.03;;;19.40;99.90;;;;;;5048175;28;20112;-75
2023/10/12 09:13:27;;;;;;;17.23;5.57;;;19.40;99.90;;;;;;5038068;28;20056;-74
2023/10/12 09:15:55;;;;;;;19.98;6.28;;;19.40;99.90;;;;;;5041917;28;20380;-74
2023/10/12 09:18:26;;;;;;;20.35;6.40;;;19.50;99.90;;;;;;5048307;28;20121;-78
2023/10/12 09:23:30;;;;;;;23.80;6.32;;;19.50;99.90;;;;;;5046279;28;20464;-76
2023/10/12 09:36:26;;;;;;;17.58;6.13;;;19.50;99.90;;;;;;5047160;28;20430;-76
2023/10/12 09:38:55;;;;;;;14.15;6.07;;;19.60;99.90;;;;;;5036106;28;20079;-75
2023/10/12 09:41:28;;;;;;;15.23;6.45;;;19.60;99.90;;;;;;5045709;28;20440;-75
2023/10/12 09:43:56;;;;;;;17.90;6.05;;;19.60;99.90;;;;;;5046709;28;20115;-75
2023/10/12 09:46:27;;;;;;;14.70;5.75;;;19.70;99.90;;;;;;5042240;28;20029;-74
2023/10/12 09:49:02;;;;;;;18.75;6.43;;;19.70;99.90;;;;;;5047150;28;20041;-74
2023/10/12 09:51:35;;;;;;;16.48;5.60;;;19.70;99.90;;;;;;5046882;28;20041;-74
2023/10/12 09:54:09;;;;;;;11.93;5.72;;;19.80;99.90;;;;;;5047006;28;20028;-76
2023/10/12 09:56:46;;;;;;;17.20;6.25;;;19.90;99.90;;;;;;5046497;28;20173;-74
2023/10/12 09:59:18;;;;;;;14.70;6.15;;;19.90;99.90;;;;;;5047203;28;20044;-75
2023/10/12 10:01:50;;;;;;;11.70;5.90;;;19.90;99.90;;;;;;5045268;28;20087;-77
2023/10/12 10:07:17;;;;;;;18.65;6.00;;;20.20;99.90;;;;;;5052357;28;20021;-74
2023/10/12 10:09:49;;;;;;;25.25;6.32;;;20.40;99.90;;;;;;5052013;28;20052;-75
2023/10/12 10:12:17;;;;;;;19.65;5.78;;;20.90;99.90;;;;;;5038690;28;20025;-77
2023/10/12 10:14:51;;;;;;;16.63;5.97;;;21.20;99.90;;;;;;5051163;28;20116;-73
2023/10/12 10:17:25;;;;;;;18.35;6.45;;;21.40;99.90;;;;;;5040892;28;20143;-75
2023/10/12 10:20:45;;;;;;;17.77;5.70;;;21.40;99.90;;;;;;5041691;28;20108;-76
2023/10/12 10:22:59;;;;;;;21.48;5.95;;;21.50;99.90;;;;;;5045885;28;20037;-77
2023/10/12 10:25:33;;;;;;;14.35;6.32;;;21.40;99.90;;;;;;5047964;28;20055;-76
2023/10/12 10:28:06;;;;;;;20.80;6.15;;;21.50;99.90;;;;;;5043710;28;20060;-76
2023/10/12 10:30:40;;;;;;;17.00;6.32;;;21.50;99.90;;;;;;5049849;28;20028;-75
2023/10/12 10:33:17;;;;;;;15.95;6.85;;;21.50;99.90;;;;;;5050350;28;20364;-74
2023/10/12 10:36:13;;;;;;;22.17;7.03;;;21.50;99.90;;;;;;5050894;28;20029;-74
2023/10/12 10:38:53;;;;;;;19.27;6.30;;;21.50;99.90;;;;;;5049329;28;20036;-76
2023/10/12 10:42:07;;;;;;;14.13;6.22;;;21.40;99.90;;;;;;5044290;28;20051;-76
2023/10/12 10:44:16;;;;;;;18.98;6.05;;;21.50;99.90;;;;;;5032180;28;20481;-76
2023/10/12 10:46:47;;;;;;;14.52;6.03;;;21.60;99.90;;;;;;5035639;28;20029;-77
2023/10/12 10:49:16;;;;;;;18.60;6.32;;;21.60;99.90;;;;;;5034644;28;20092;-71
2023/10/12 10:54:33;;;;;;;16.17;6.78;;;21.60;99.80;;;;;;5038773;28;20688;-75
2023/10/12 10:57:04;;;;;;;19.10;6.60;;;21.60;99.90;;;;;;5042670;28;20086;-75
2023/10/12 10:59:31;;;;;;;15.02;6.28;;;21.60;99.90;;;;;;5048226;28;20079;-72
2023/10/12 11:01:59;;;;;;;15.88;6.28;;;21.70;99.80;;;;;;5049461;28;20109;-75
2023/10/12 11:07:03;;;;;;;14.95;6.35;;;21.90;99.70;;;;;;5036118;28;20060;-75
2023/10/12 11:09:48;;;;;;;16.50;6.00;;;22.10;99.90;;;;;;5043496;28;20045;-74
2023/10/12 11:12:14;;;;;;;15.57;5.95;;;22.50;99.60;;;;;;5049348;28;20037;-74
2023/10/12 11:14:52;;;;;;;17.70;6.70;;;22.80;99.80;;;;;;5039873;28;20036;-76
2023/10/12 11:17:19;;;;;;;17.25;6.28;;;22.90;99.00;;;;;;5043495;28;20040;-76
2023/10/12 11:19:46;;;;;;;13.57;6.05;;;23.00;99.10;;;;;;5047786;28;20029;-76
2023/10/12 11:22:14;;;;;;;19.80;6.13;;;23.30;97.50;;;;;;5049205;28;20033;-76
2023/10/12 11:24:48;;;;;;;14.93;6.38;;;23.40;97.40;;;;;;5047807;28;20116;-74
2023/10/12 11:27:35;;;;;;;13.65;5.80;;;23.30;96.50;;;;;;5043197;28;20503;-73
2023/10/12 11:30:18;;;;;;;14.85;5.97;;;23.00;97.00;;;;;;5046887;28;20116;-75
2023/10/12 11:32:53;;;;;;;15.65;5.93;;;22.90;97.10;;;;;;5044479;28;20446;-76
2023/10/12 11:35:45;;;;;;;12.30;5.93;;;22.90;97.70;;;;;;5045649;28;20040;-76
2023/10/12 11:38:20;;;;;;;13.05;5.95;;;23.00;97.30;;;;;;5040394;28;20029;-75
2023/10/12 11:40:53;;;;;;;19.50;6.00;;;23.00;98.30;;;;;;5046900;28;20079;-75
2023/10/12 11:43:21;;;;;;;11.93;6.40;;;22.90;96.80;;;;;;5040886;28;20033;-78
2023/10/12 11:46:01;;;;;;;19.58;6.15;;;22.60;97.00;;;;;;5043710;28;20029;-69
2023/10/12 11:48:27;;;;;;;16.23;6.30;;;22.30;97.70;;;;;;5045310;28;20371;-70
2023/10/12 11:50:54;;;;;;;16.75;5.72;;;22.10;98.10;;;;;;5047831;28;20033;-69
2023/10/12 11:53:20;;;;;;;12.65;6.03;;;22.00;97.70;;;;;;5042967;28;20051;-68
2023/10/12 11:55:49;;;;;;;15.05;5.80;;;21.90;98.90;;;;;;5043302;28;20056;-70
2023/10/12 11:58:18;;;;;;;12.55;6.00;;;21.90;98.90;;;;;;5049364;28;20044;-70
2023/10/12 12:00:50;;;;;;;20.02;6.35;;;21.80;98.50;;;;;;5046894;28;20021;-78
2023/10/12 12:03:17;;;;;;;11.98;6.03;;;21.70;99.10;;;;;;5047940;28;20083;-78
2023/10/12 12:05:50;;;;;;;12.93;5.97;;;21.70;99.30;;;;;;5045397;28;20044;-77
2023/10/12 12:08:18;;;;;;;14.00;6.30;;;21.70;98.90;;;;;;5035257;28;20043;-76
2023/10/12 12:10:46;;;;;;;13.75;6.93;;;21.70;99.50;;;;;;5039836;28;20034;-78
2023/10/12 12:13:16;;;;;;;15.50;6.65;;;21.70;99.80;;;;;;5044558;28;20041;-78
2023/10/12 12:15:43;;;;;;;11.50;5.97;;;21.70;99.50;;;;;;5037356;28;20809;-77
2023/10/12 12:18:19;;;;;;;12.65;5.90;;;21.70;99.90;;;;;;5035216;28;20831;-79
2023/10/12 12:20:52;;;;;;;18.52;7.10;;;21.80;99.60;;;;;;5038169;28;20045;-79
2023/10/12 12:23:19;;;;;;;14.15;6.53;;;21.70;99.60;;;;;;5028837;28;20029;-79
2023/10/12 12:25:46;;;;;;;12.43;6.18;;;21.70;98.30;;;;;;5033587;28;20447;-78
2023/10/12 12:28:21;;;;;;;15.50;6.55;;;21.60;99.40;;;;;;5032224;28;20041;-77
2023/10/12 12:30:55;;;;;;;12.93;6.05;;;21.70;98.90;;;;;;5031762;28;20029;-77
2023/10/12 12:33:23;;;;;;;16.70;6.40;;;21.80;99.40;;;;;;5036670;28;20400;-77
2023/10/12 12:36:12;;;;;;;12.90;6.22;;;21.70;99.90;;;;;;5039708;28;20041;-76
2023/10/12 12:41:05;;;;;;;15.32;6.57;;;21.70;98.90;;;;;;5043110;28;20025;-77
2023/10/12 12:43:33;;;;;;;12.90;5.78;;;21.60;98.80;;;;;;5040724;28;20424;-76
2023/10/12 12:45:59;;;;;;;12.40;5.93;;;21.50;99.50;;;;;;5035092;28;20043;-75
2023/10/12 12:48:25;;;;;;;17.98;6.60;;;21.50;99.20;;;;;;5041712;28;20037;-78
2023/10/12 12:50:50;;;;;;;20.45;6.47;;;21.50;99.10;;;;;;5040089;28;20036;-72
2023/10/12 12:53:19;;;;;;;22.45;6.65;;;21.40;99.60;;;;;;5043199;28;20025;-73
2023/10/12 12:55:46;;;;;;;18.17;6.72;;;21.20;99.50;;;;;;5045288;28;20031;-73
2023/10/12 12:58:15;;;;;;;13.75;6.25;;;21.20;99.40;;;;;;5047354;28;20024;-73
2023/10/12 13:00:48;;;;;;;24.65;6.60;;;21.10;99.40;;;;;;5046500;28;20098;-74
2023/10/12 13:03:17;;;;;;;14.27;5.93;;;21.10;99.90;;;;;;5044198;28;20036;-77
2023/10/12 13:05:43;;;;;;;18.98;6.78;;;21.10;99.90;;;;;;5040223;28;20045;-74
2023/10/12 13:08:11;;;;;;;16.27;6.00;;;21.00;99.90;;;;;;5047410;28;20106;-75
2023/10/12 13:10:37;;;;;;;24.98;7.95;;;21.00;99.90;;;;;;5046799;28;20029;-75
2023/10/12 13:13:03;;;;;;;13.40;6.13;;;21.00;99.90;;;;;;5047665;28;20029;-76
2023/10/12 13:15:31;;;;;;;16.88;6.10;;;21.00;99.90;;;;;;5046342;28;20040;-75
2023/10/12 13:17:59;;;;;;;28.13;6.85;;;21.10;99.90;;;;;;5031671;28;20061;-75
2023/10/12 13:20:29;;;;;;;23.80;6.72;;;21.00;99.90;;;;;;5042975;28;20037;-76
2023/10/12 13:22:58;;;;;;;15.55;6.38;;;21.00;99.90;;;;;;5044992;28;20065;-75
2023/10/12 13:25:26;;;;;;;22.95;6.28;;;21.00;99.90;;;;;;5036790;28;20048;-74
2023/10/12 13:27:52;;;;;;;15.13;6.40;;;21.00;99.90;;;;;;5048430;28;20040;-74
2023/10/12 13:30:18;;;;;;;18.27;6.65;;;21.00;99.90;;;;;;5035057;28;20108;-74
2023/10/12 13:32:52;;;;;;;19.65;6.85;;;21.00;99.90;;;;;;5026942;28;20033;-74
2023/10/12 13:35:18;;;;;;;18.52;6.55;;;20.90;99.90;;;;;;5048100;28;20397;-75
2023/10/12 13:37:51;;;;;;;17.83;6.43;;;20.90;99.90;;;;;;5046373;28;20029;-73
2023/10/12 13:40:17;;;;;;;15.43;6.78;;;20.90;99.90;;;;;;5044674;28;20037;-75
2023/10/12 13:42:46;;;;;;;19.67;7.07;;;20.80;99.90;;;;;;5045175;28;20083;-74
2023/10/12 13:45:18;;;;;;;13.98;6.80;;;20.70;99.90;;;;;;5047150;28;20028;-75
2023/10/12 13:47:46;;;;;;;15.43;6.53;;;20.80;99.90;;;;;;5041727;28;20041;-76
2023/10/12 13:50:13;;;;;;;19.90;7.10;;;20.70;99.90;;;;;;5037844;28;20112;-77
2023/10/12 13:52:39;;;;;;;19.15;6.60;;;20.60;99.90;;;;;;5036700;28;20025;-76
2023/10/12 13:55:15;;;;;;;18.02;7.30;;;20.50;99.90;;;;;;5036180;28;20033;-76
2023/10/12 13:57:55;;;;;;;16.27;6.75;;;20.40;99.90;;;;;;5044086;28;20041;-75
2023/10/12 14:00:27;;;;;;;15.02;6.88;;;20.50;99.90;;;;;;5047331;28;20112;-76
2023/10/12 14:02:56;;;;;;;18.05;7.18;;;20.70;99.90;;;;;;5042975;28;20028;-78
2023/10/12 14:05:29;;;;;;;16.98;5.97;;;20.70;99.90;;;;;;5042265;28;20057;-75
2023/10/12 14:07:58;;;;;;;24.60;7.65;;;20.80;99.90;;;;;;5045803;28;20029;-75
2023/10/12 14:10:26;;;;;;;15.85;7.03;;;20.90;99.90;;;;;;5047021;28;20029;-75
2023/10/12 14:12:53;;;;;;;14.27;6.90;;;20.90;99.90;;;;;;5042963;28;20560;-76
2023/10/12 14:15:20;;;;;;;16.67;7.13;;;20.80;99.90;;;;;;5041665;28;20108;-76
2023/10/12 14:17:46;;;;;;;23.05;6.70;;;20.80;99.90;;;;;;5046474;28;20583;-74
2023/10/12 14:20:13;;;;;;;18.10;7.40;;;20.70;99.90;;;;;;5046390;28;20051;-75
2023/10/12 14:22:44;;;;;;;14.95;7.13;;;20.80;99.90;;;;;;5044122;28;20500;-77
2023/10/12 14:25:14;;;;;;;19.00;7.10;;;20.90;99.90;;;;;;5043010;28;20116;-75
2023/10/12 14:27:42;;;;;;;;;;;20.80;99.90;;;;;;5047369;28;20025;-76
2023/10/12 14:30:15;;;;;;;15.43;6.78;;;20.70;99.90;;;;;;5044343;28;19948;-74
2023/10/12 14:32:41;;;;;;;16.90;6.80;;;20.70;99.90;;;;;;5028668;28;20079;-77
2023/10/12 14:35:09;;;;;;;24.35;7.40;;;20.80;99.90;;;;;;5046130;28;20061;-75
2023/10/12 14:37:36;;;;;;;15.95;6.90;;;20.70;99.90;;;;;;5046419;28;20021;-75
2023/10/12 14:40:10;;;;;;;19.15;7.25;;;20.70;99.90;;;;;;5045346;28;20076;-75
2023/10/12 14:42:40;;;;;;;16.52;6.50;;;20.70;99.90;;;;;;5039098;28;20078;-74
2023/10/12 14:45:08;;;;;;;15.80;6.50;;;20.70;99.90;;;;;;5044544;28;20057;-76
2023/10/12 14:47:35;;;;;;;14.65;6.72;;;20.70;99.90;;;;;;5045190;28;20544;-75
2023/10/12 14:50:05;;;;;;;14.55;6.30;;;20.70;99.90;;;;;;5042252;28;20401;-76
2023/10/12 14:52:43;;;;;;;12.70;6.93;;;20.60;99.90;;;;;;5047804;28;20029;-79
2023/10/12 14:55:12;;;;;;;16.60;7.63;;;20.60;99.90;;;;;;5049096;28;20120;-76
2023/10/12 14:57:38;;;;;;;13.50;7.03;;;20.60;99.90;;;;;;5048762;28;20052;-76
2023/10/12 15:00:22;;;;;;;11.85;6.53;;;20.60;99.90;;;;;;5047222;28;20025;-76
2023/10/12 15:02:48;;;;;;;17.27;7.00;;;20.70;99.90;;;;;;5033079;28;20047;-74
2023/10/12 15:05:14;;;;;;;16.80;6.15;;;20.70;99.90;;;;;;5043747;28;20070;-76
2023/10/12 15:07:40;;;;;;;16.90;6.85;;;20.70;99.90;;;;;;5046976;28;20409;-76
2023/10/12 15:10:06;;;;;;;16.33;7.00;;;20.70;99.90;;;;;;5045779;28;20061;-74
2023/10/12 15:12:37;;;;;;;18.30;6.70;;;20.70;99.90;;;;;;5045265;28;20060;-76
2023/10/12 15:15:10;;;;;;;20.85;7.10;;;20.70;99.90;;;;;;5047937;28;20528;-74
2023/10/12 15:17:39;;;;;;;14.73;6.80;;;20.60;99.90;;;;;;5049357;28;20037;-75
2023/10/12 15:20:06;;;;;;;16.27;6.75;;;20.60;99.90;;;;;;5050489;28;20037;-75
2023/10/12 15:22:32;;;;;;;27.25;7.15;;;20.60;99.90;;;;;;5048468;28;20040;-78
2023/10/12 15:24:58;;;;;;;12.95;6.30;;;20.50;99.90;;;;;;5044274;28;20025;-76
2023/10/12 15:27:23;;;;;;;16.52;6.40;;;20.50;99.90;;;;;;5048520;28;20064;-75